createdAt,value
2023-07-09T00:02:18.725Z,100218.78
2023-07-09T00:06:35.883Z,100225.19
2023-07-09T00:10:52.526Z,100235.12
2023-07-09T00:15:10.969Z,100227.34
2023-07-09T00:19:30.754Z,100222.81
2023-07-09T00:23:50.245Z,100224.00
2023-07-09T00:28:08.352Z,100214.31
2023-07-09T00:32:26.154Z,100217.91
2023-07-09T00:36:46.761Z,100220.69
2023-07-09T00:41:18.871Z,100217.47
2023-07-09T00:45:35.247Z,100238.19
2023-07-09T00:49:58.740Z,100224.94
2023-07-09T00:54:20.288Z,100220.09
2023-07-09T00:58:39.371Z,100221.88
2023-07-09T01:02:56.037Z,100218.47
2023-07-09T01:07:12.946Z,100220.91
2023-07-09T01:11:29.467Z,100223.69
2023-07-09T01:15:47.755Z,100225.50
2023-07-09T01:20:04.652Z,100236.72
2023-07-09T01:25:05.738Z,100232.97
2023-07-09T01:29:22.536Z,100233.63
2023-07-09T01:33:40.697Z,100222.19
2023-07-09T01:37:57.214Z,100225.97
2023-07-09T01:42:14.399Z,100238.19
2023-07-09T01:46:31.746Z,100233.63
2023-07-09T01:50:50.794Z,100237.69
2023-07-09T01:55:07.828Z,100235.56
2023-07-09T01:59:24.150Z,100238.03
2023-07-09T02:03:40.486Z,100245.38
2023-07-09T02:07:56.954Z,100239.00
2023-07-09T02:12:14.371Z,100233.16
2023-07-09T02:16:30.751Z,100241.28
2023-07-09T02:20:49.991Z,100237.88
2023-07-09T02:25:07.644Z,100239.31
2023-07-09T02:29:24.982Z,100240.31
2023-07-09T02:33:41.587Z,100244.53
2023-07-09T02:37:58.305Z,100243.25
2023-07-09T02:42:16.703Z,100242.25
2023-07-09T02:46:33.106Z,100244.53
2023-07-09T02:50:49.454Z,100253.16
2023-07-09T02:55:06.086Z,100242.41
2023-07-09T02:59:22.414Z,100248.41
2023-07-09T03:03:38.752Z,100258.53
2023-07-09T03:07:55.047Z,100253.78
2023-07-09T03:12:11.452Z,100251.81
2023-07-09T03:16:33.165Z,100255.56
2023-07-09T03:20:49.461Z,100254.94
2023-07-09T03:25:06.042Z,100257.97
2023-07-09T03:29:22.376Z,100264.37
2023-07-09T03:33:38.625Z,100260.31
2023-07-09T03:37:54.815Z,100262.34
2023-07-09T03:42:12.776Z,100263.09
2023-07-09T03:46:29.361Z,100272.69
2023-07-09T03:50:47.772Z,100261.28
2023-07-09T03:55:05.511Z,100259.00
2023-07-09T03:59:21.761Z,100269.09
2023-07-09T04:03:38.018Z,100265.00
2023-07-09T04:07:54.727Z,100274.16
2023-07-09T04:12:11.627Z,100280.50
2023-07-09T04:16:27.905Z,100278.22
2023-07-09T04:20:44.114Z,100273.16
2023-07-09T04:25:00.543Z,100278.84
2023-07-09T04:29:16.763Z,100282.62
2023-07-09T04:33:33.068Z,100283.56
2023-07-09T04:37:49.335Z,100284.41
2023-07-09T04:42:06.940Z,100288.81
2023-07-09T04:46:23.294Z,100280.50
2023-07-09T04:50:41.871Z,100280.53
2023-07-09T04:54:58.436Z,100277.28
2023-07-09T04:59:14.669Z,100277.78
2023-07-09T05:03:31.084Z,100274.16
2023-07-09T05:07:48.358Z,100270.69
2023-07-09T05:12:04.785Z,100275.88
2023-07-09T05:16:21.558Z,100275.00
2023-07-09T05:20:37.841Z,100270.87
2023-07-09T05:24:54.073Z,100274.22
2023-07-09T05:29:10.419Z,100274.09
2023-07-09T05:33:26.741Z,100269.12
2023-07-09T05:37:43.111Z,100269.25
2023-07-09T05:41:59.379Z,100274.28
2023-07-09T05:46:15.878Z,100272.56
2023-07-09T05:50:34.184Z,100275.53
2023-07-09T05:54:54.409Z,100275.19
2023-07-09T05:59:11.301Z,100276.22
2023-07-09T06:03:28.630Z,100274.53
2023-07-09T06:07:44.988Z,100283.09
2023-07-09T06:12:02.365Z,100279.59
2023-07-09T06:16:19.034Z,100281.34
2023-07-09T06:20:35.313Z,100298.37
2023-07-09T06:24:51.580Z,100286.69
2023-07-09T06:29:08.034Z,100292.75
2023-07-09T06:33:26.940Z,100295.16
2023-07-09T06:37:43.144Z,100298.66
2023-07-09T06:41:59.404Z,100294.16
2023-07-09T06:46:16.750Z,100282.19
2023-07-09T06:50:37.029Z,100286.22
2023-07-09T06:54:53.347Z,100280.78
2023-07-09T06:59:09.693Z,100283.44
2023-07-09T07:03:26.532Z,100283.53
2023-07-09T07:07:42.861Z,100288.84
2023-07-09T07:11:59.060Z,100284.66
2023-07-09T07:16:15.271Z,100291.13
2023-07-09T07:20:32.176Z,100289.84
2023-07-09T07:24:48.486Z,100291.91
2023-07-09T07:29:04.771Z,100289.47
2023-07-09T07:33:21.025Z,100281.50
2023-07-09T07:37:37.235Z,100282.88
2023-07-09T07:41:53.498Z,100290.25
2023-07-09T07:46:09.944Z,100282.91
2023-07-09T07:50:27.216Z,100287.25
2023-07-09T07:54:43.476Z,100287.59
2023-07-09T07:58:59.695Z,100282.03
2023-07-09T08:03:15.959Z,100281.13
2023-07-09T08:07:32.366Z,100273.56
2023-07-09T08:11:50.456Z,100276.00
2023-07-09T08:16:08.162Z,100276.62
2023-07-09T08:20:24.621Z,100269.41
2023-07-09T08:24:40.966Z,100279.84
2023-07-09T08:28:57.116Z,100278.09
2023-07-09T08:33:13.325Z,100263.87
2023-07-09T08:37:29.691Z,100271.34
2023-07-09T08:42:08.923Z,100267.00
2023-07-09T08:46:49.868Z,100265.53
2023-07-09T08:51:18.776Z,100258.47
2023-07-09T08:55:41.654Z,100254.81
2023-07-09T09:00:03.259Z,100253.22
2023-07-09T09:04:29.551Z,100253.72
2023-07-09T09:09:22.638Z,100258.34
2023-07-09T09:13:39.721Z,100257.56
2023-07-09T09:17:59.505Z,100250.81
2023-07-09T09:22:20.290Z,100254.84
2023-07-09T09:26:39.419Z,100251.41
2023-07-09T09:31:00.061Z,100248.25
2023-07-09T09:35:19.061Z,100256.09
2023-07-09T09:39:39.388Z,100256.78
2023-07-09T09:43:56.879Z,100252.34
2023-07-09T09:48:32.038Z,100250.47
2023-07-09T09:52:51.146Z,100249.53
2023-07-09T09:57:22.644Z,100247.34
2023-07-09T10:01:40.660Z,100238.62
2023-07-09T10:06:01.009Z,100234.56
2023-07-09T10:10:23.674Z,100233.87
2023-07-09T10:15:25.729Z,100227.84
2023-07-09T10:19:46.875Z,100226.19
2023-07-09T10:24:11.138Z,100233.09
2023-07-09T10:29:04.343Z,100216.81
2023-07-09T10:33:33.489Z,100231.34
2023-07-09T10:38:08.909Z,100222.12
2023-07-09T10:42:37.399Z,100220.56
2023-07-09T10:46:59.455Z,100212.12
2023-07-09T10:51:52.112Z,100221.78
2023-07-09T10:56:12.812Z,100223.37
2023-07-09T11:00:39.962Z,100202.22
2023-07-09T11:05:02.266Z,100203.31
2023-07-09T11:09:26.120Z,100207.72
2023-07-09T11:13:52.533Z,100204.69
2023-07-09T11:18:14.495Z,100200.03
2023-07-09T11:22:42.957Z,100204.69
2023-07-09T11:27:01.559Z,100190.56
2023-07-09T11:31:36.543Z,100188.81
2023-07-09T11:35:55.869Z,100186.84
2023-07-09T11:40:14.881Z,100182.56
2023-07-09T11:44:33.796Z,100180.16
2023-07-09T11:48:50.871Z,100171.34
2023-07-09T11:53:13.751Z,100167.31
2023-07-09T11:57:30.926Z,100160.56
2023-07-09T12:01:50.109Z,100157.75
2023-07-09T12:06:14.865Z,100162.47
2023-07-09T12:10:35.556Z,100161.25
2023-07-09T12:14:51.994Z,100159.16
2023-07-09T12:19:09.552Z,100148.44
2023-07-09T12:23:35.550Z,100152.84
2023-07-09T12:27:52.249Z,100133.78
2023-07-09T12:32:15.277Z,100143.91
2023-07-09T12:36:31.573Z,100133.16
2023-07-09T12:40:48.937Z,100135.84
2023-07-09T12:45:06.656Z,100137.25
2023-07-09T12:49:31.080Z,100124.53
2023-07-09T12:53:47.544Z,100122.47
2023-07-09T12:58:03.986Z,100112.19
2023-07-09T13:02:21.428Z,100115.31
2023-07-09T13:06:38.204Z,100110.56
2023-07-09T13:10:55.546Z,100112.69
2023-07-09T13:15:31.036Z,100103.91
2023-07-09T13:19:47.510Z,100106.19
2023-07-09T13:24:08.645Z,100099.22
2023-07-09T13:28:31.456Z,100096.28
2023-07-09T13:32:53.104Z,100100.53
2023-07-09T13:37:19.322Z,100092.84
2023-07-09T13:41:37.940Z,100093.56
2023-07-09T13:45:55.206Z,100085.84
2023-07-09T13:50:11.932Z,100085.09
2023-07-09T13:54:39.045Z,100084.94
2023-07-09T13:58:55.297Z,100089.53
2023-07-09T14:03:21.574Z,100082.38
2023-07-09T14:07:40.860Z,100073.00
2023-07-09T14:11:57.185Z,100073.81
2023-07-09T14:16:16.475Z,100081.81
2023-07-09T14:20:32.771Z,100072.75
2023-07-09T14:24:49.081Z,100066.53
2023-07-09T14:29:07.377Z,100078.38
2023-07-09T14:33:24.148Z,100067.13
2023-07-09T14:37:40.695Z,100069.69
2023-07-09T14:41:57.653Z,100069.25
2023-07-09T14:46:14.295Z,100068.03
2023-07-09T14:50:30.869Z,100062.19
2023-07-09T14:54:52.550Z,100056.66
2023-07-09T14:59:09.559Z,100060.97
2023-07-09T15:03:27.890Z,100054.66
2023-07-09T15:07:46.232Z,100058.78
2023-07-09T15:12:02.528Z,100054.88
2023-07-09T15:16:18.966Z,100055.34
2023-07-09T15:20:35.309Z,100059.41
2023-07-09T15:24:52.845Z,100049.41
2023-07-09T15:29:15.575Z,100047.72
2023-07-09T15:33:32.574Z,100037.91
2023-07-09T15:37:52.009Z,100040.47
2023-07-09T15:42:13.041Z,100047.44
2023-07-09T15:46:29.426Z,100044.72
2023-07-09T15:50:45.676Z,100037.66
2023-07-09T15:55:02.001Z,100046.44
2023-07-09T15:59:34.736Z,100030.22
2023-07-09T16:04:02.388Z,100029.00
2023-07-09T16:08:19.293Z,100027.88
2023-07-09T16:12:35.590Z,100026.34
2023-07-09T16:16:54.301Z,100021.81
2023-07-09T16:21:32.178Z,100023.37
2023-07-09T16:25:49.776Z,100021.69
2023-07-09T16:30:15.431Z,100030.59
2023-07-09T16:34:32.525Z,100022.06
2023-07-09T16:38:49.215Z,100032.09
2023-07-09T16:43:14.207Z,100021.91
2023-07-09T16:47:31.542Z,100019.59
2023-07-09T16:51:47.836Z,100018.81
2023-07-09T16:56:04.492Z,100016.94
2023-07-09T17:00:29.644Z,100023.19
2023-07-09T17:04:45.900Z,100019.09
2023-07-09T17:09:02.107Z,100024.09
2023-07-09T17:13:29.221Z,100021.78
2023-07-09T17:17:45.675Z,100020.25
2023-07-09T17:22:01.962Z,100020.28
2023-07-09T17:26:21.143Z,100016.31
2023-07-09T17:30:37.500Z,100015.44
2023-07-09T17:34:54.379Z,100020.97
2023-07-09T17:39:22.093Z,100020.37
2023-07-09T17:43:39.348Z,100025.50
2023-07-09T17:47:55.904Z,100026.59
2023-07-09T17:52:20.573Z,100025.78
2023-07-09T17:56:37.487Z,100019.66
2023-07-09T18:00:56.656Z,100018.62
2023-07-09T18:05:30.121Z,100016.72
2023-07-09T18:09:46.500Z,100025.53
2023-07-09T18:14:04.140Z,100029.22
2023-07-09T18:18:20.732Z,100030.66
2023-07-09T18:22:36.984Z,100029.41
2023-07-09T18:26:53.481Z,100039.19
2023-07-09T18:31:17.553Z,100034.44
2023-07-09T18:35:38.781Z,100033.59
2023-07-09T18:39:55.125Z,100039.66
2023-07-09T18:44:22.604Z,100043.28
2023-07-09T18:48:42.411Z,100050.87
2023-07-09T18:53:00.244Z,100044.84
2023-07-09T18:57:18.217Z,100046.81
2023-07-09T19:01:35.805Z,100046.28
2023-07-09T19:05:52.326Z,100060.69
2023-07-09T19:10:37.228Z,100053.00
2023-07-09T19:14:53.468Z,100058.00
2023-07-09T19:19:17.439Z,100072.38
2023-07-09T19:23:34.117Z,100074.56
2023-07-09T19:27:51.882Z,100070.34
2023-07-09T19:32:22.555Z,100075.44
2023-07-09T19:36:38.796Z,100074.16
2023-07-09T19:40:55.082Z,100071.63
2023-07-09T19:45:15.994Z,100076.22
2023-07-09T19:49:32.435Z,100076.88
2023-07-09T19:53:48.637Z,100075.13
2023-07-09T19:58:04.951Z,100081.28
2023-07-09T20:02:30.686Z,100075.19
2023-07-09T20:06:47.058Z,100076.12
2023-07-09T20:11:04.933Z,100069.50
2023-07-09T20:15:29.042Z,100088.91
2023-07-09T20:19:45.658Z,100083.63
2023-07-09T20:24:02.060Z,100080.84
2023-07-09T20:28:22.077Z,100094.13
2023-07-09T20:32:39.256Z,100084.44
2023-07-09T20:36:55.502Z,100089.41
2023-07-09T20:41:19.595Z,100090.31
2023-07-09T20:45:35.889Z,100092.84
2023-07-09T20:49:52.265Z,100102.16
2023-07-09T20:54:08.630Z,100100.53
2023-07-09T20:58:29.538Z,100098.25
2023-07-09T21:02:47.312Z,100100.47
2023-07-09T21:07:03.737Z,100098.47
2023-07-09T21:11:20.002Z,100103.66
2023-07-09T21:15:36.296Z,100103.38
2023-07-09T21:19:53.058Z,100103.16
2023-07-09T21:24:24.703Z,100105.13
2023-07-09T21:28:40.971Z,100111.00
2023-07-09T21:32:58.039Z,100107.12
2023-07-09T21:37:20.044Z,100111.63
2023-07-09T21:41:36.310Z,100110.63
2023-07-09T21:45:54.979Z,100111.81
2023-07-09T21:50:19.111Z,100116.00
2023-07-09T21:58:57.418Z,100119.19
2023-07-09T22:03:15.092Z,100125.09
2023-07-09T22:07:31.828Z,100119.28
2023-07-09T22:11:50.736Z,100121.13
2023-07-09T22:16:10.359Z,100114.72
2023-07-09T22:20:27.468Z,100123.50
2023-07-09T22:24:43.818Z,100123.34
2023-07-09T22:29:00.484Z,100123.56
2023-07-09T22:33:17.742Z,100127.75
2023-07-09T22:37:35.200Z,100129.91
2023-07-09T22:41:51.441Z,100132.37
2023-07-09T22:46:13.480Z,100124.53
2023-07-09T22:50:32.341Z,100119.34
2023-07-09T22:54:48.883Z,100127.28
2023-07-09T22:59:05.313Z,100123.38
2023-07-09T23:03:24.679Z,100122.69
2023-07-09T23:07:41.078Z,100126.28
2023-07-09T23:11:57.358Z,100122.34
2023-07-09T23:16:20.440Z,100120.72
2023-07-09T23:20:36.680Z,100121.53
2023-07-09T23:24:52.899Z,100126.62
2023-07-09T23:29:14.845Z,100141.13
2023-07-09T23:33:35.323Z,100137.50
2023-07-09T23:37:51.724Z,100143.75
2023-07-09T23:42:09.792Z,100142.50
2023-07-09T23:46:44.332Z,100139.81
2023-07-09T23:51:02.900Z,100143.84
2023-07-09T23:55:19.965Z,100137.72
2023-07-09T23:59:37.249Z,100136.41
